createdAt,value
2022-11-10T00:01:07.530Z,16.17
2022-11-10T00:03:35.406Z,12.68
2022-11-10T00:06:03.354Z,21.45
2022-11-10T00:08:30.486Z,16.17
2022-11-10T00:10:57.740Z,14.77
2022-11-10T00:13:29.344Z,13.93
2022-11-10T00:16:17.010Z,13.68
2022-11-10T00:18:44.905Z,11.65
2022-11-10T00:21:12.942Z,12.82
2022-11-10T00:23:41.089Z,14.50
2022-11-10T00:26:11.930Z,13.48
2022-11-10T00:28:40.018Z,11.63
2022-11-10T00:31:07.585Z,13.07
2022-11-10T00:33:35.984Z,14.15
2022-11-10T00:36:03.123Z,14.52
2022-11-10T00:38:30.215Z,13.95
2022-11-10T00:40:58.524Z,10.57
2022-11-10T00:43:26.865Z,11.32
2022-11-10T00:45:54.291Z,17.92
2022-11-10T00:48:23.609Z,14.38
2022-11-10T00:50:50.725Z,12.02
2022-11-10T00:53:17.962Z,16.77
2022-11-10T00:55:45.235Z,13.43
2022-11-10T00:58:12.369Z,12.57
2022-11-10T01:00:39.473Z,15.57
2022-11-10T01:03:06.766Z,15.27
2022-11-10T01:05:37.300Z,15.93
2022-11-10T01:08:04.578Z,11.18
2022-11-10T01:10:31.794Z,8.80
2022-11-10T01:12:58.950Z,13.10
2022-11-10T01:15:27.841Z,21.23
2022-11-10T01:17:55.915Z,10.52
2022-11-10T01:20:23.219Z,14.68
2022-11-10T01:22:50.372Z,12.95
2022-11-10T01:25:17.561Z,13.38
2022-11-10T01:27:44.706Z,18.33
2022-11-10T01:30:12.044Z,17.38
2022-11-10T01:32:39.159Z,13.88
2022-11-10T01:35:06.525Z,17.52
2022-11-10T01:37:33.605Z,15.85
2022-11-10T01:40:00.751Z,16.33
2022-11-10T01:42:30.265Z,17.15
2022-11-10T01:45:15.953Z,14.95
2022-11-10T01:47:43.066Z,13.18
2022-11-10T01:50:10.173Z,14.73
2022-11-10T01:52:37.316Z,16.67
2022-11-10T01:55:04.462Z,16.33
2022-11-10T01:57:31.694Z,12.15
2022-11-10T01:59:58.901Z,17.45
2022-11-10T02:02:27.872Z,17.25
2022-11-10T02:04:55.619Z,16.98
2022-11-10T02:07:23.079Z,15.25
2022-11-10T02:09:50.192Z,22.48
2022-11-10T02:12:36.885Z,16.05
2022-11-10T02:15:08.234Z,15.93
2022-11-10T02:17:35.584Z,13.65
2022-11-10T02:20:04.870Z,14.15
2022-11-10T02:22:32.595Z,15.50
2022-11-10T02:25:00.051Z,16.77
2022-11-10T02:27:27.137Z,19.45
2022-11-10T02:29:54.382Z,22.23
2022-11-10T02:32:21.521Z,13.73
2022-11-10T02:34:48.588Z,19.55
2022-11-10T02:37:15.714Z,12.38
2022-11-10T02:39:42.783Z,17.50
2022-11-10T02:42:10.360Z,16.48
2022-11-10T02:44:40.837Z,15.27
2022-11-10T02:47:08.406Z,16.77
2022-11-10T02:49:35.515Z,16.35
2022-11-10T02:52:02.587Z,19.73
2022-11-10T02:54:29.635Z,14.48
2022-11-10T02:56:56.867Z,20.63
2022-11-10T02:59:23.990Z,15.07
2022-11-10T03:01:51.137Z,15.80
2022-11-10T03:04:18.221Z,13.77
2022-11-10T03:06:46.177Z,19.95
2022-11-10T03:09:13.320Z,17.23
2022-11-10T03:11:40.466Z,16.10
2022-11-10T03:14:07.613Z,15.10
2022-11-10T03:16:34.661Z,18.92
2022-11-10T03:19:01.831Z,15.02
2022-11-10T03:21:28.914Z,12.20
2022-11-10T03:23:56.046Z,14.95
2022-11-10T03:26:23.135Z,18.77
2022-11-10T03:28:50.784Z,20.25
2022-11-10T03:31:17.837Z,19.42
2022-11-10T03:33:44.914Z,13.55
2022-11-10T03:36:12.034Z,15.32
2022-11-10T03:38:39.087Z,15.95
2022-11-10T03:41:21.579Z,14.88
2022-11-10T03:43:49.509Z,20.73
2022-11-10T03:46:17.293Z,17.80
2022-11-10T03:48:48.729Z,24.48
2022-11-10T03:51:19.218Z,18.48
2022-11-10T03:53:46.318Z,19.88
2022-11-10T03:56:13.430Z,17.13
2022-11-10T03:58:41.303Z,18.77
2022-11-10T04:01:08.828Z,19.83
2022-11-10T04:03:35.944Z,15.75
2022-11-10T04:06:27.706Z,20.10
2022-11-10T04:09:01.183Z,17.75
2022-11-10T04:11:47.770Z,22.33
2022-11-10T04:14:33.654Z,25.70
2022-11-10T04:17:00.866Z,15.95
2022-11-10T04:19:28.057Z,21.85
2022-11-10T04:21:55.477Z,22.08
2022-11-10T04:24:22.613Z,22.50
2022-11-10T04:26:50.069Z,16.35
2022-11-10T04:29:18.258Z,19.25
2022-11-10T04:31:45.629Z,20.08
2022-11-10T04:34:14.280Z,20.48
2022-11-10T04:36:42.457Z,17.15
2022-11-10T04:39:10.702Z,19.17
2022-11-10T04:41:37.809Z,17.08
2022-11-10T04:44:05.390Z,19.00
2022-11-10T04:46:39.952Z,16.65
2022-11-10T04:49:08.224Z,11.68
2022-11-10T04:51:36.511Z,22.20
2022-11-10T04:54:04.381Z,24.00
2022-11-10T04:56:31.500Z,20.52
2022-11-10T04:58:58.687Z,25.00
2022-11-10T05:01:27.126Z,23.05
2022-11-10T05:03:54.963Z,20.63
2022-11-10T05:06:22.392Z,17.02
2022-11-10T05:08:49.555Z,23.70
2022-11-10T05:11:17.192Z,18.85
2022-11-10T05:13:44.805Z,16.90
2022-11-10T05:16:12.319Z,16.27
2022-11-10T05:18:39.385Z,18.92
2022-11-10T05:21:06.620Z,20.02
2022-11-10T05:23:39.809Z,16.83
2022-11-10T05:26:14.667Z,16.63
2022-11-10T05:28:42.989Z,12.80
2022-11-10T05:31:10.473Z,17.08
2022-11-10T05:33:38.321Z,17.85
2022-11-10T05:36:06.321Z,12.13
2022-11-10T05:38:37.592Z,14.75
2022-11-10T05:41:07.568Z,14.40
2022-11-10T05:43:34.643Z,15.63
2022-11-10T05:46:02.290Z,13.05
2022-11-10T05:48:29.415Z,16.63
2022-11-10T05:50:56.526Z,17.25
2022-11-10T05:53:23.983Z,18.20
2022-11-10T05:55:51.374Z,14.20
2022-11-10T05:58:18.532Z,19.70
2022-11-10T06:00:45.594Z,19.00
2022-11-10T06:03:16.850Z,15.32
2022-11-10T06:05:44.261Z,15.88
2022-11-10T06:08:11.736Z,14.18
2022-11-10T06:10:39.399Z,17.60
2022-11-10T06:13:06.634Z,12.63
2022-11-10T06:15:33.847Z,16.15
2022-11-10T06:18:00.924Z,12.48
2022-11-10T06:20:28.342Z,17.98
2022-11-10T06:23:05.964Z,18.15
2022-11-10T06:25:34.318Z,17.45
2022-11-10T06:28:01.899Z,17.40
2022-11-10T06:30:29.953Z,12.65
2022-11-10T06:32:57.225Z,12.85
2022-11-10T06:35:24.946Z,17.48
2022-11-10T06:38:01.910Z,13.00
2022-11-10T06:40:29.700Z,17.90
2022-11-10T06:42:56.880Z,13.18
2022-11-10T06:45:24.898Z,13.65
2022-11-10T06:48:08.689Z,14.15
2022-11-10T06:50:36.109Z,23.15
2022-11-10T06:53:03.524Z,16.35
2022-11-10T06:55:31.191Z,12.85
2022-11-10T06:57:58.674Z,12.18
2022-11-10T07:00:27.352Z,8.43
2022-11-10T07:03:05.365Z,7.13
2022-11-10T07:05:34.045Z,7.70
2022-11-10T07:08:13.615Z,15.63
2022-11-10T07:10:40.883Z,7.10
2022-11-10T07:13:07.955Z,8.75
2022-11-10T07:15:35.047Z,10.05
2022-11-10T07:18:02.834Z,6.57
2022-11-10T07:20:30.777Z,8.73
2022-11-10T07:23:01.371Z,8.70
2022-11-10T07:25:29.482Z,4.88
2022-11-10T07:27:57.597Z,8.10
2022-11-10T07:30:25.051Z,7.95
2022-11-10T07:33:01.948Z,8.27
2022-11-10T07:35:29.542Z,14.00
2022-11-10T07:37:57.420Z,9.63
2022-11-10T07:40:24.901Z,8.25
2022-11-10T07:42:52.001Z,6.18
2022-11-10T07:45:19.169Z,9.10
2022-11-10T07:47:46.265Z,8.98
2022-11-10T07:50:13.385Z,6.38
2022-11-10T07:52:40.517Z,7.13
2022-11-10T07:55:07.709Z,5.60
2022-11-10T07:57:34.868Z,7.13
2022-11-10T08:00:02.413Z,7.68
2022-11-10T08:02:29.516Z,8.10
2022-11-10T08:04:56.844Z,7.43
2022-11-10T08:07:24.015Z,7.78
2022-11-10T08:09:51.198Z,5.47
2022-11-10T08:12:18.329Z,7.53
2022-11-10T08:14:45.427Z,9.15
2022-11-10T08:17:12.598Z,6.90
2022-11-10T08:19:39.669Z,6.22
2022-11-10T08:22:06.773Z,7.78
2022-11-10T08:24:33.838Z,7.50
2022-11-10T08:27:00.933Z,7.30
2022-11-10T08:29:28.009Z,7.10
2022-11-10T08:31:58.334Z,9.13
2022-11-10T08:34:25.424Z,11.95
2022-11-10T08:36:53.760Z,7.10
2022-11-10T08:39:38.182Z,7.22
2022-11-10T08:42:06.352Z,6.70
2022-11-10T08:44:33.481Z,7.07
2022-11-10T08:47:00.772Z,7.20
2022-11-10T08:49:27.881Z,7.35
2022-11-10T08:51:54.953Z,6.68
2022-11-10T08:54:22.042Z,7.18
2022-11-10T08:56:49.110Z,6.45
2022-11-10T08:59:16.169Z,6.57
2022-11-10T09:01:43.315Z,5.88
2022-11-10T09:04:10.498Z,4.82
2022-11-10T09:06:37.651Z,6.63
2022-11-10T09:09:04.787Z,6.93
2022-11-10T09:11:31.859Z,6.90
2022-11-10T09:13:58.940Z,4.50
2022-11-10T09:16:26.021Z,6.22
2022-11-10T09:18:53.147Z,9.20
2022-11-10T09:21:20.340Z,6.78
2022-11-10T09:23:48.696Z,9.05
2022-11-10T09:26:16.068Z,5.18
2022-11-10T09:28:43.240Z,4.53
2022-11-10T09:31:10.370Z,5.00
2022-11-10T09:33:37.437Z,3.92
2022-11-10T09:36:04.602Z,4.25
2022-11-10T09:38:31.737Z,4.28
2022-11-10T09:41:04.362Z,3.53
2022-11-10T09:43:39.009Z,9.95
2022-11-10T09:46:24.987Z,7.43
2022-11-10T09:48:54.494Z,4.10
2022-11-10T09:51:21.565Z,5.50
2022-11-10T09:53:55.788Z,4.13
2022-11-10T09:56:26.708Z,5.22
2022-11-10T09:58:53.929Z,2.35
2022-11-10T10:01:29.577Z,5.50
2022-11-10T10:04:19.454Z,6.22
2022-11-10T10:07:10.170Z,6.05
2022-11-10T10:09:56.810Z,5.38
2022-11-10T10:12:31.667Z,5.03
2022-11-10T10:15:13.825Z,7.05
2022-11-10T10:17:46.409Z,4.60
2022-11-10T10:20:18.021Z,6.13
2022-11-10T10:22:45.083Z,4.10
2022-11-10T10:25:18.976Z,3.22
2022-11-10T10:27:47.698Z,7.10
2022-11-10T10:30:16.223Z,7.00
2022-11-10T10:32:43.353Z,4.32
2022-11-10T10:35:17.337Z,6.13
2022-11-10T10:37:45.949Z,2.72
2022-11-10T10:40:21.021Z,9.05
2022-11-10T10:42:48.273Z,5.53
2022-11-10T10:45:25.816Z,3.45
2022-11-10T10:47:54.195Z,4.25
2022-11-10T10:50:21.754Z,5.50
2022-11-10T10:53:11.944Z,5.00
2022-11-10T10:55:39.372Z,5.63
2022-11-10T10:58:19.126Z,8.15
2022-11-10T11:00:47.200Z,5.82
2022-11-10T11:03:19.890Z,7.88
2022-11-10T11:06:00.390Z,5.13
2022-11-10T11:08:27.535Z,7.38
2022-11-10T11:10:54.698Z,5.70
2022-11-10T11:13:23.306Z,7.60
2022-11-10T11:16:12.323Z,4.20
2022-11-10T11:18:40.448Z,7.03
2022-11-10T11:21:07.592Z,6.88
2022-11-10T11:23:43.592Z,6.22
2022-11-10T11:26:20.461Z,7.82
2022-11-10T11:29:06.317Z,6.18
2022-11-10T11:31:45.828Z,8.13
2022-11-10T11:34:17.198Z,5.03
2022-11-10T11:36:51.435Z,8.00
2022-11-10T11:39:24.616Z,5.82
2022-11-10T11:42:10.315Z,4.63
2022-11-10T11:44:43.647Z,7.93
2022-11-10T11:47:16.700Z,5.30
2022-11-10T11:49:55.935Z,3.78
2022-11-10T11:52:41.854Z,4.45
2022-11-10T11:55:11.930Z,6.82
2022-11-10T11:57:55.003Z,3.60
2022-11-10T12:00:22.412Z,6.53
2022-11-10T12:03:04.490Z,4.80
2022-11-10T12:05:51.486Z,5.77
2022-11-10T12:08:18.553Z,6.38
2022-11-10T12:11:00.926Z,8.25
2022-11-10T12:13:38.425Z,2.22
2022-11-10T12:16:24.323Z,3.80
2022-11-10T12:19:00.108Z,5.50
2022-11-10T12:21:29.966Z,3.63
2022-11-10T12:24:15.614Z,4.28
2022-11-10T12:26:48.916Z,1.80
2022-11-10T12:29:23.533Z,4.05
2022-11-10T12:31:54.598Z,4.55
2022-11-10T12:34:21.680Z,4.70
2022-11-10T12:36:49.951Z,5.90
2022-11-10T12:39:32.577Z,5.80
2022-11-10T12:42:00.965Z,3.28
2022-11-10T12:44:40.191Z,3.65
2022-11-10T12:47:08.063Z,2.75
2022-11-10T12:49:39.882Z,5.63
2022-11-10T12:52:15.074Z,3.10
2022-11-10T12:54:43.066Z,4.80
2022-11-10T12:57:22.456Z,6.32
2022-11-10T13:00:22.448Z,3.03
2022-11-10T13:02:55.499Z,5.75
2022-11-10T13:05:37.061Z,4.85
2022-11-10T13:08:13.279Z,3.35
2022-11-10T13:10:48.557Z,5.30
2022-11-10T13:13:16.246Z,4.85
2022-11-10T13:15:43.282Z,4.53
2022-11-10T13:18:10.918Z,3.78
2022-11-10T13:20:56.792Z,4.10
2022-11-10T13:23:26.931Z,3.85
2022-11-10T13:25:55.526Z,3.97
2022-11-10T13:28:41.254Z,4.10
2022-11-10T13:31:27.216Z,4.82
2022-11-10T13:34:03.605Z,7.70
2022-11-10T13:36:44.056Z,3.33
2022-11-10T13:39:20.440Z,5.53
2022-11-10T13:41:48.503Z,6.20
2022-11-10T13:44:23.881Z,2.72
2022-11-10T13:47:34.823Z,5.45
2022-11-10T13:50:13.986Z,3.20
2022-11-10T13:53:02.348Z,2.13
2022-11-10T13:55:32.155Z,2.35
2022-11-10T13:58:01.247Z,3.67
2022-11-10T14:00:30.501Z,3.13
2022-11-10T14:02:58.618Z,4.90
2022-11-10T14:05:32.618Z,4.30
2022-11-10T14:08:04.791Z,6.05
2022-11-10T14:10:50.478Z,4.05
2022-11-10T14:13:25.272Z,5.10
2022-11-10T14:15:54.130Z,4.22
2022-11-10T14:18:22.789Z,8.13
2022-11-10T14:20:55.123Z,4.68
2022-11-10T14:23:26.488Z,4.10
2022-11-10T14:25:56.490Z,3.40
2022-11-10T14:28:29.821Z,4.40
2022-11-10T14:30:57.547Z,5.38
2022-11-10T14:33:25.584Z,5.00
2022-11-10T14:36:08.486Z,3.05
2022-11-10T14:38:37.269Z,5.00
2022-11-10T14:41:05.356Z,3.97
2022-11-10T14:43:36.382Z,4.35
2022-11-10T14:46:04.344Z,6.57
2022-11-10T14:48:33.646Z,5.63
2022-11-10T14:51:05.388Z,6.03
2022-11-10T14:53:36.476Z,7.43
2022-11-10T14:56:05.148Z,5.72
2022-11-10T14:58:32.285Z,5.93
2022-11-10T15:00:59.568Z,5.00
2022-11-10T15:03:34.255Z,4.35
2022-11-10T15:06:01.900Z,4.60
2022-11-10T15:08:29.962Z,6.68
2022-11-10T15:10:57.743Z,4.95
2022-11-10T15:13:27.762Z,4.60
2022-11-10T15:16:13.401Z,6.70
2022-11-10T15:18:40.477Z,4.22
2022-11-10T15:21:10.647Z,5.32
2022-11-10T15:23:39.245Z,3.20
2022-11-10T15:26:17.345Z,3.97
2022-11-10T15:28:44.645Z,5.43
2022-11-10T15:31:14.080Z,5.10
2022-11-10T15:33:46.341Z,9.05
2022-11-10T15:36:14.821Z,12.00
2022-11-10T15:38:41.951Z,8.88
2022-11-10T15:41:11.859Z,11.48
2022-11-10T15:43:39.468Z,7.07
2022-11-10T15:46:17.698Z,9.60
2022-11-10T15:48:46.785Z,12.85
2022-11-10T15:51:15.087Z,9.32
2022-11-10T15:53:46.894Z,9.57
2022-11-10T15:56:17.036Z,11.57
2022-11-10T15:58:57.671Z,13.82
2022-11-10T16:01:27.886Z,16.05
2022-11-10T16:03:55.593Z,32.25
2022-11-10T16:06:22.665Z,15.07
2022-11-10T16:08:49.757Z,16.88
2022-11-10T16:11:21.329Z,11.35
2022-11-10T16:13:49.357Z,10.20
2022-11-10T16:16:17.536Z,8.70
2022-11-10T16:18:44.666Z,8.15
2022-11-10T16:21:15.673Z,11.50
2022-11-10T16:23:43.550Z,18.27
2022-11-10T16:26:12.440Z,8.88
2022-11-10T16:28:39.666Z,8.00
2022-11-10T16:31:09.285Z,9.25
2022-11-10T16:33:36.365Z,7.85
2022-11-10T16:36:03.747Z,8.65
2022-11-10T16:38:31.605Z,10.10
2022-11-10T16:41:02.463Z,7.05
2022-11-10T16:43:30.577Z,6.50
2022-11-10T16:45:59.579Z,8.48
2022-11-10T16:48:30.620Z,7.97
2022-11-10T16:50:58.841Z,8.27
2022-11-10T16:53:27.847Z,8.30
2022-11-10T16:55:54.906Z,9.68
2022-11-10T16:58:26.013Z,9.13
2022-11-10T17:00:54.495Z,8.02
2022-11-10T17:03:26.740Z,7.93
2022-11-10T17:05:54.370Z,10.32
2022-11-10T17:08:23.209Z,9.95
2022-11-10T17:10:51.126Z,6.53
2022-11-10T17:13:18.497Z,9.45
2022-11-10T17:15:46.787Z,10.85
2022-11-10T17:18:15.745Z,8.85
2022-11-10T17:20:43.928Z,8.55
2022-11-10T17:23:13.219Z,10.68
2022-11-10T17:25:40.749Z,18.88
2022-11-10T17:28:10.388Z,20.95
2022-11-10T17:30:37.950Z,17.65
2022-11-10T17:33:05.805Z,19.58
2022-11-10T17:35:39.202Z,17.75
2022-11-10T17:38:10.800Z,23.85
2022-11-10T17:40:37.870Z,20.33
2022-11-10T17:43:04.941Z,23.05
2022-11-10T17:45:31.997Z,19.55
2022-11-10T17:47:59.668Z,23.88
2022-11-10T17:50:26.751Z,19.90
2022-11-10T17:52:54.110Z,19.65
2022-11-10T17:55:22.360Z,18.10
2022-11-10T17:57:49.883Z,19.85
2022-11-10T18:00:18.060Z,35.15
2022-11-10T18:02:47.210Z,22.55
2022-11-10T18:05:17.900Z,25.70
2022-11-10T18:07:45.301Z,17.25
2022-11-10T18:10:13.645Z,21.40
2022-11-10T18:12:41.071Z,24.90
2022-11-10T18:15:13.416Z,28.48
2022-11-10T18:17:40.901Z,22.27
2022-11-10T18:20:08.547Z,20.88
2022-11-10T18:22:35.682Z,19.40
2022-11-10T18:25:02.891Z,17.88
2022-11-10T18:27:30.185Z,19.95
2022-11-10T18:29:57.328Z,21.05
2022-11-10T18:32:24.727Z,18.45
2022-11-10T18:34:51.837Z,20.58
2022-11-10T18:37:19.911Z,20.38
2022-11-10T18:39:47.338Z,15.95
2022-11-10T18:42:14.773Z,16.52
2022-11-10T18:44:41.917Z,16.90
2022-11-10T18:47:11.379Z,12.32
2022-11-10T18:49:38.454Z,13.23
2022-11-10T18:52:05.557Z,17.52
2022-11-10T18:54:32.629Z,15.77
2022-11-10T18:56:59.754Z,19.95
2022-11-10T18:59:26.847Z,29.70
2022-11-10T19:01:54.070Z,37.83
2022-11-10T19:04:21.205Z,34.25
2022-11-10T19:06:48.339Z,24.10
2022-11-10T19:09:15.545Z,16.23
2022-11-10T19:11:43.721Z,18.77
2022-11-10T19:14:10.817Z,20.08
2022-11-10T19:16:37.960Z,24.02
2022-11-10T19:19:05.108Z,18.85
2022-11-10T19:21:32.310Z,17.10
2022-11-10T19:23:59.799Z,16.15
2022-11-10T19:26:27.887Z,12.63
2022-11-10T19:28:55.794Z,16.92
2022-11-10T19:31:23.866Z,15.90
2022-11-10T19:33:52.013Z,13.68
2022-11-10T19:36:23.506Z,18.63
2022-11-10T19:38:51.367Z,18.47
2022-11-10T19:41:20.046Z,16.45
2022-11-10T19:43:47.843Z,27.23
2022-11-10T19:46:16.501Z,22.88
2022-11-10T19:48:44.067Z,18.13
2022-11-10T19:51:13.453Z,26.75
2022-11-10T19:53:41.016Z,23.05
2022-11-10T19:56:10.648Z,26.92
2022-11-10T19:58:38.336Z,37.70
2022-11-10T20:01:06.666Z,73.32
2022-11-10T20:03:33.808Z,61.50
2022-11-10T20:06:02.145Z,47.53
2022-11-10T20:08:29.317Z,39.47
2022-11-10T20:10:59.921Z,37.50
2022-11-10T20:13:27.015Z,33.17
2022-11-10T20:15:54.115Z,20.63
2022-11-10T20:18:21.397Z,16.95
2022-11-10T20:20:48.576Z,18.65
2022-11-10T20:23:18.893Z,22.23
2022-11-10T20:25:46.021Z,17.67
2022-11-10T20:28:14.267Z,15.32
2022-11-10T20:30:42.957Z,18.77
2022-11-10T20:33:10.273Z,19.55
2022-11-10T20:35:41.313Z,21.13
2022-11-10T20:38:08.426Z,20.38
2022-11-10T20:40:44.470Z,19.75
2022-11-10T20:43:12.889Z,17.73
2022-11-10T20:45:40.056Z,28.45
2022-11-10T20:48:07.200Z,37.65
2022-11-10T20:50:34.255Z,39.25
2022-11-10T20:53:01.405Z,43.55
2022-11-10T20:55:52.174Z,28.55
2022-11-10T20:58:15.596Z,23.92
2022-11-10T21:00:43.967Z,21.13
2022-11-10T21:03:11.024Z,20.65
2022-11-10T21:05:38.102Z,21.95
2022-11-10T21:08:05.233Z,24.55
2022-11-10T21:10:32.452Z,17.95
2022-11-10T21:12:59.555Z,18.63
2022-11-10T21:15:26.648Z,16.05
2022-11-10T21:17:53.721Z,19.02
2022-11-10T21:20:20.817Z,17.85
2022-11-10T21:22:47.897Z,21.27
2022-11-10T21:25:16.440Z,21.90
2022-11-10T21:27:43.507Z,21.30
2022-11-10T21:30:22.434Z,19.25
2022-11-10T21:32:49.666Z,18.23
2022-11-10T21:35:17.236Z,17.10
2022-11-10T21:37:44.515Z,16.83
2022-11-10T21:40:11.840Z,14.57
2022-11-10T21:42:38.997Z,14.65
2022-11-10T21:45:06.479Z,15.38
2022-11-10T21:47:33.597Z,13.18
2022-11-10T21:50:00.684Z,12.80
2022-11-10T21:52:32.361Z,9.05
2022-11-10T21:55:00.010Z,11.40
2022-11-10T21:57:27.155Z,10.63
2022-11-10T21:59:54.266Z,9.52
2022-11-10T22:02:21.404Z,11.35
2022-11-10T22:04:48.467Z,10.63
2022-11-10T22:07:24.892Z,7.93
2022-11-10T22:10:11.186Z,11.82
2022-11-10T22:12:57.042Z,10.52
2022-11-10T22:15:42.922Z,9.25
2022-11-10T22:18:36.065Z,9.05
2022-11-10T22:23:49.101Z,10.57
2022-11-10T22:26:16.184Z,12.23
2022-11-10T22:28:43.546Z,10.20
2022-11-10T22:31:11.523Z,9.52
2022-11-10T22:33:39.508Z,9.77
2022-11-10T22:36:07.914Z,8.63
2022-11-10T22:38:35.739Z,11.15
2022-11-10T22:41:21.541Z,8.27
2022-11-10T22:44:03.904Z,6.65
2022-11-10T22:46:38.701Z,6.03
2022-11-10T22:49:07.331Z,6.18
2022-11-10T22:51:34.534Z,8.05
2022-11-10T22:54:02.236Z,5.72
2022-11-10T22:56:30.726Z,5.10
2022-11-10T22:59:00.120Z,6.97
2022-11-10T23:01:27.635Z,5.18
2022-11-10T23:03:54.890Z,4.20
2022-11-10T23:06:21.997Z,8.48
2022-11-10T23:08:49.081Z,10.60
2022-11-10T23:11:17.777Z,6.13
2022-11-10T23:13:44.926Z,8.15
2022-11-10T23:16:13.312Z,8.13
2022-11-10T23:18:41.345Z,8.45
2022-11-10T23:21:09.959Z,6.75
2022-11-10T23:23:38.064Z,7.90
2022-11-10T23:26:06.660Z,9.10
2022-11-10T23:28:34.946Z,6.50
2022-11-10T23:31:10.042Z,7.53
2022-11-10T23:33:37.833Z,7.85
2022-11-10T23:36:05.401Z,9.27
2022-11-10T23:38:36.546Z,5.75
2022-11-10T23:41:04.640Z,5.28
2022-11-10T23:43:32.013Z,10.02
2022-11-10T23:46:06.814Z,10.20
2022-11-10T23:48:35.049Z,9.80
2022-11-10T23:51:02.256Z,12.60
2022-11-10T23:53:29.440Z,9.43
2022-11-10T23:56:00.792Z,7.60
2022-11-10T23:58:28.276Z,6.38
